x

Sheboygan, Wi (sgnw3) Weather Station

1:00pm - Thu 30th Jun 2016 All times are CDT. -5 hours from GMT.

  • Wind
    16mph, 17mph gusts
  • Air Temp 66°f
  • Sea Pressure 1014.4mb
  • Sheboygan, Wi
  • Sheboygan, Wi

More Historic Weather Station data

Upgrade to MSW Pro to gain access to the past 30 days of data for over 8000 Wavebouys and Weather Stations around the globe.

Join Pro

Comparision Forecast

View Surf forecast
   
Thu 06/30 1:00pm 16 17 mph 1014.4mb 66f
12:00pm 15 16 mph 1015.2mb 65f
11:00am 17 18 mph 1015.6mb 67f
10:00am 7 9 mph 1016.1mb 70f
9:00am 6 7 mph 1016.2mb 71f
8:00am 8 9 mph 1016.3mb 68f
7:00am 10 11 mph 1016.5mb 64f
6:00am 10 11 mph 1016.3mb 64f
5:00am 9 10 mph 1016.3mb 62f
4:00am 10 11 mph 1016.1mb 63f
3:00am 6 7 mph 1016.2mb 63f
2:00am 6 7 mph 1016.6mb 64f
1:00am 6 7 mph 1017.2mb 64f
12:00am 5 6 mph 1017.3mb 64f
Wed 06/29 11:00pm 8
mph
1018.1mb 64f
10:00pm 6
mph
1018.3mb 64f
9:00pm 8 9 mph 1017.6mb 63f
8:00pm 10 11 mph 1017.6mb 64f
7:00pm 13 14 mph 1017.7mb 63f
6:00pm 13 14 mph 1018.2mb 63f
5:00pm 11 13 mph 1018.8mb 63f
4:00pm 10
mph
1019.2mb 63f
3:00pm 13 14 mph 1019.8mb 63f
2:00pm 11 13 mph 1020.1mb 63f
1:00pm 14
mph
1020.1mb 63f
12:00pm 13
mph
1020.2mb 62f
11:00am 10
mph
1020.6mb 62f
10:00am 10 11 mph 1020.6mb 62f
9:00am 7
mph
1021mb 62f
8:00am 2
mph
1020.9mb 63f
7:00am 5 6 mph 1020.6mb 61f
6:00am  -  1 mph 1020.4mb 60f
5:00am  -  1 mph 1020.7mb 59f
4:00am 5 6 mph 1021.4mb 58f
3:00am 13 14 mph 1022mb 58f
2:00am 5 6 mph 1020.7mb 60f
1:00am 2 3 mph 1020.4mb 60f
12:00am 3
mph
1020.6mb 61f
Tue 06/28 11:00pm 5
mph
1020.6mb 61f
10:00pm 3
mph
1020.8mb 61f
9:00pm 2
mph
1020.7mb 62f
8:00pm  -  1 mph 1020.8mb 62f
7:00pm 5 6 mph 1021.1mb 62f
6:00pm 5 6 mph 1021.3mb 61f
5:00pm 3 5 mph 1021.7mb 61f
4:00pm 7 8 mph 1022.3mb 61f
3:00pm 9 10 mph 1022.4mb 61f
2:00pm 14 15 mph 1022.8mb 61f
1:00pm 15 16 mph 1023mb 60f
12:00pm 18 21 mph 1023mb 60f
11:00am 18 21 mph 1023.1mb 59f
10:00am 21 23 mph 1023.1mb 59f
9:00am 23 25 mph 1022.8mb 58f
8:00am 23 25 mph 1022.6mb 58f
7:00am 18 21 mph 1022.3mb 58f
6:00am 15 17 mph 1021.5mb 58f
5:00am 15 16 mph 1021.3mb 58f
4:00am 17 20 mph 1020.8mb 59f
3:00am 16 17 mph 1020.6mb 59f
2:00am 11 13 mph 1020.4mb 59f
1:00am 17 18 mph 1020.5mb 60f
12:00am 16 18 mph 1020.8mb 60f
Mon 06/27 11:00pm 22 23 mph 1020.3mb 59f
10:00pm 16 17 mph 1019.6mb 63f
9:00pm 16 17 mph 1019mb 63f
8:00pm 24 26 mph 1018.1mb 64f
7:00pm 13 16 mph 1017.2mb 72f
6:00pm 16 21 mph 1016.8mb 73f
5:00pm 14 17 mph 1016.6mb 74f
4:00pm 15 18 mph 1016.5mb 74f
3:00pm 15 20 mph 1016.6mb 75f
2:00pm 16 23 mph 1016.5mb 74f
1:00pm 14 17 mph 1016.4mb 74f
12:00pm 20 24 mph 1016mb 73f
11:00am 18 22 mph 1015.7mb 73f
10:00am 15 21 mph 1015.2mb 73f
9:00am 17 21 mph 1015.1mb 74f
8:00am 13 15 mph 1014.9mb 73f
7:00am 10 13 mph 1014.4mb 72f
6:00am 10 13 mph 1014.1mb 71f
5:00am 9 10 mph 1013.8mb 71f
4:00am 11 13 mph 1013.9mb 70f
3:00am 11 14 mph 1013.8mb 70f
2:00am 11 13 mph 1014.2mb 72f
1:00am 10 11 mph 1014.4mb 72f
12:00am 11 14 mph 1014.2mb 75f
Sun 06/26 11:00pm 9 11 mph 1014.5mb 76f
10:00pm 8 10 mph 1014.3mb 77f
9:00pm 10 13 mph 1013.5mb 80f
8:00pm 11 14 mph 1013.3mb 83f